Fence, Wisconsin
Current Conditions -  °F | °C
As of 3:54 PM on Tuesday 25 Nov 2014 (Local Time) from KIMT Reporting Station
Clear Clear  
Wind Chill: 16°   Ceiling: Unl
Heat Index: 22°   Visibility: 10mi
Dew Point: 10°   Wind: 5mph
Humidity: 60%   Direction: 270°W
Pressure: 29.99"   Gusts: NA
Location:  45.74°N, 88.42°W
Report Text: KIMT 252154Z AUTO 27004KT 10SM CLR M06/M12 A2999 RMK AO2 SLP175 T10561122
Loading
Personal Weather Stations






























Interactive Weather Map New forecast layout! Learn more

10-Day Weather Forecast

Advertisements
Track Severe Weather on mobile